createdAt,value
2018-04-26T00:01:12.791Z,87.92
2018-04-26T00:02:12.771Z,87.44
2018-04-26T00:04:05.636Z,87.87
2018-04-26T00:05:05.610Z,88.11
2018-04-26T00:06:58.456Z,88.26
2018-04-26T00:07:58.431Z,88.49
2018-04-26T00:09:51.294Z,88.78
2018-04-26T00:10:51.265Z,88.78
2018-04-26T00:12:44.121Z,88.78
2018-04-26T00:13:44.095Z,88.16
2018-04-26T00:15:36.959Z,88.40
2018-04-26T00:16:36.925Z,86.96
2018-04-26T00:18:29.781Z,87.82
2018-04-26T00:19:29.759Z,87.35
2018-04-26T00:21:22.628Z,91.16
2018-04-26T00:22:22.596Z,92.88
2018-04-26T00:24:15.446Z,90.50
2018-04-26T00:25:15.428Z,88.73
2018-04-26T00:27:08.289Z,90.31
2018-04-26T00:28:08.260Z,90.50
2018-04-26T00:30:01.107Z,91.83
2018-04-26T00:31:01.093Z,91.83
2018-04-26T00:32:53.950Z,91.74
2018-04-26T00:33:53.920Z,90.59
2018-04-26T00:35:46.791Z,91.93
2018-04-26T00:36:46.776Z,90.97
2018-04-26T00:38:39.632Z,91.36
2018-04-26T00:39:39.605Z,89.54
2018-04-26T00:41:32.452Z,91.93
2018-04-26T00:42:32.433Z,90.17
2018-04-26T00:44:25.297Z,91.45
2018-04-26T00:45:25.262Z,89.35
2018-04-26T00:47:18.115Z,90.36
2018-04-26T00:48:18.100Z,90.40
2018-04-26T00:50:10.959Z,90.40
2018-04-26T00:51:10.924Z,90.21
2018-04-26T00:53:03.775Z,90.50
2018-04-26T00:54:03.754Z,89.54
2018-04-26T00:55:56.624Z,89.02
2018-04-26T00:56:56.596Z,90.31
2018-04-26T00:58:49.448Z,90.59
2018-04-26T00:59:49.426Z,88.26
2018-04-26T01:01:42.292Z,89.12
2018-04-26T01:02:42.261Z,88.92
2018-04-26T01:04:35.105Z,88.16
2018-04-26T01:05:35.088Z,88.45
2018-04-26T01:07:27.952Z,87.87
2018-04-26T01:08:27.924Z,88.83
2018-04-26T01:10:20.771Z,88.45
2018-04-26T01:11:20.750Z,89.31
2018-04-26T01:13:13.616Z,89.16
2018-04-26T01:14:13.583Z,90.36
2018-04-26T01:16:06.437Z,88.73
2018-04-26T01:17:06.413Z,89.25
2018-04-26T01:18:59.279Z,87.11
2018-04-26T01:19:59.275Z,86.44
2018-04-26T01:21:52.102Z,86.54
2018-04-26T01:22:52.079Z,85.01
2018-04-26T01:24:44.946Z,84.48
2018-04-26T01:25:44.912Z,84.06
2018-04-26T01:27:37.773Z,82.34
2018-04-26T01:28:37.752Z,82.34
2018-04-26T01:30:30.616Z,82.06
2018-04-26T01:31:30.582Z,82.63
2018-04-26T01:33:23.433Z,82.06
2018-04-26T01:34:23.415Z,82.63
2018-04-26T01:36:16.274Z,85.49
2018-04-26T01:37:16.242Z,85.21
2018-04-26T01:39:09.091Z,84.16
2018-04-26T01:40:09.081Z,86.92
2018-04-26T01:42:01.938Z,83.48
2018-04-26T01:43:01.904Z,83.39
2018-04-26T01:44:54.753Z,84.16
2018-04-26T01:45:54.734Z,83.96
2018-04-26T01:47:47.597Z,84.92
2018-04-26T01:48:47.562Z,86.16
2018-04-26T01:50:40.413Z,87.11
2018-04-26T01:51:40.389Z,85.68
2018-04-26T01:53:33.252Z,86.44
2018-04-26T01:54:33.221Z,86.54
2018-04-26T01:56:26.076Z,88.26
2018-04-26T01:57:26.054Z,90.07
2018-04-26T01:59:18.919Z,89.02
2018-04-26T02:00:18.881Z,90.07
2018-04-26T02:02:11.733Z,97.71
2018-04-26T02:03:11.712Z,99.99
2018-04-26T02:05:04.576Z,99.99
2018-04-26T02:06:04.542Z,99.99
2018-04-26T02:07:57.399Z,99.99
2018-04-26T02:08:57.376Z,99.99
2018-04-26T02:10:50.241Z,99.99
2018-04-26T02:11:50.210Z,99.99
2018-04-26T02:13:43.063Z,99.99
2018-04-26T02:14:43.045Z,99.99
2018-04-26T02:16:35.906Z,99.99
2018-04-26T02:17:35.876Z,99.99
2018-04-26T02:19:28.726Z,99.99
2018-04-26T02:20:28.705Z,99.99
2018-04-26T02:22:21.570Z,99.99
2018-04-26T02:23:21.539Z,99.99
2018-04-26T02:25:14.393Z,99.99
2018-04-26T02:26:14.375Z,99.99
2018-04-26T02:28:07.239Z,99.99
2018-04-26T02:29:07.205Z,99.99
2018-04-26T02:31:00.061Z,99.99
2018-04-26T02:32:00.046Z,99.99
2018-04-26T02:33:52.905Z,99.99
2018-04-26T02:34:52.870Z,99.99
2018-04-26T02:36:45.720Z,99.99
2018-04-26T02:37:45.701Z,99.99
2018-04-26T02:39:38.564Z,99.99
2018-04-26T02:40:38.532Z,99.99
2018-04-26T02:42:31.382Z,99.99
2018-04-26T02:43:31.363Z,99.99
2018-04-26T02:45:24.231Z,99.99
2018-04-26T02:46:24.201Z,99.99
2018-04-26T02:48:17.054Z,99.99
2018-04-26T02:49:17.031Z,99.99
2018-04-26T02:51:09.892Z,99.99
2018-04-26T02:52:09.899Z,99.99
2018-04-26T02:54:02.710Z,99.99
2018-04-26T02:55:02.689Z,99.99
2018-04-26T02:56:55.559Z,99.99
2018-04-26T02:57:55.526Z,99.99
2018-04-26T02:59:48.375Z,99.99
2018-04-26T03:00:48.354Z,99.99
2018-04-26T03:02:41.215Z,99.99
2018-04-26T03:03:41.186Z,99.99
2018-04-26T03:05:34.037Z,99.99
2018-04-26T03:06:34.023Z,99.99
2018-04-26T03:08:26.887Z,99.99
2018-04-26T03:09:26.853Z,99.99
2018-04-26T03:11:19.707Z,99.99
2018-04-26T03:12:19.686Z,99.99
2018-04-26T03:14:12.554Z,99.99
2018-04-26T03:15:12.521Z,99.99
2018-04-26T03:17:05.375Z,99.99
2018-04-26T03:18:05.351Z,99.99
2018-04-26T03:19:58.209Z,99.99
2018-04-26T03:20:58.182Z,99.99
2018-04-26T03:22:51.029Z,99.99
2018-04-26T03:23:51.010Z,99.99
2018-04-26T03:25:43.878Z,99.99
2018-04-26T03:26:43.840Z,99.99
2018-04-26T03:28:36.689Z,99.99
2018-04-26T03:29:36.672Z,99.99
2018-04-26T03:31:29.538Z,99.99
2018-04-26T03:32:29.506Z,99.99
2018-04-26T03:34:22.352Z,99.99
2018-04-26T03:35:22.332Z,99.99
2018-04-26T03:37:15.214Z,99.99
2018-04-26T03:38:15.170Z,99.99
2018-04-26T03:40:08.027Z,99.99
2018-04-26T03:41:08.007Z,99.99
2018-04-26T03:43:00.869Z,99.99
2018-04-26T03:44:00.835Z,99.99
2018-04-26T03:45:53.685Z,99.99
2018-04-26T03:46:53.663Z,99.99
2018-04-26T03:48:46.524Z,99.99
2018-04-26T03:49:46.493Z,99.99
2018-04-26T03:51:39.345Z,99.99
2018-04-26T03:52:39.325Z,99.99
2018-04-26T03:54:32.194Z,99.99
2018-04-26T03:55:32.162Z,99.99
2018-04-26T03:57:25.012Z,99.99
2018-04-26T03:58:24.992Z,99.99
2018-04-26T04:00:17.854Z,99.99
2018-04-26T04:01:17.821Z,99.99
2018-04-26T04:03:10.672Z,99.99
2018-04-26T04:04:10.651Z,99.99
2018-04-26T04:06:03.515Z,99.99
2018-04-26T04:07:03.482Z,99.99
2018-04-26T04:08:56.331Z,99.99
2018-04-26T04:09:56.312Z,99.99
2018-04-26T04:11:49.175Z,99.99
2018-04-26T04:12:49.147Z,99.99
2018-04-26T04:14:41.994Z,99.99
2018-04-26T04:15:41.972Z,99.99
2018-04-26T04:17:34.838Z,99.99
2018-04-26T04:18:34.805Z,99.99
2018-04-26T04:20:27.656Z,99.99
2018-04-26T04:21:27.634Z,99.99
2018-04-26T04:23:20.568Z,99.99
2018-04-26T04:24:20.484Z,99.99
2018-04-26T04:26:13.317Z,99.99
2018-04-26T04:27:13.287Z,99.99
2018-04-26T04:29:06.148Z,99.99
2018-04-26T04:30:06.116Z,99.99
2018-04-26T04:31:58.969Z,99.99
2018-04-26T04:32:58.948Z,99.99
2018-04-26T04:34:51.813Z,99.99
2018-04-26T04:35:51.782Z,99.99
2018-04-26T04:37:44.632Z,99.99
2018-04-26T04:38:44.608Z,99.99
2018-04-26T04:40:37.467Z,99.99
2018-04-26T04:41:37.437Z,99.99
2018-04-26T04:43:30.294Z,99.99
2018-04-26T04:44:30.271Z,99.99
2018-04-26T04:46:23.128Z,99.99
2018-04-26T04:47:23.102Z,99.99
2018-04-26T04:49:15.949Z,99.99
2018-04-26T04:50:15.930Z,99.99
2018-04-26T04:52:08.813Z,96.99
2018-04-26T04:53:08.764Z,99.99
2018-04-26T04:55:01.627Z,98.52
2018-04-26T04:56:01.617Z,99.99
2018-04-26T04:57:54.465Z,99.99
2018-04-26T04:58:54.444Z,96.61
2018-04-26T05:00:47.295Z,89.72
2018-04-26T05:01:47.274Z,87.37
2018-04-26T05:03:40.139Z,92.69
2018-04-26T05:04:40.106Z,92.44
2018-04-26T05:06:32.965Z,95.22
2018-04-26T05:07:32.947Z,99.99
2018-04-26T05:09:25.815Z,98.38
2018-04-26T05:10:25.783Z,86.21
2018-04-26T05:12:18.638Z,87.61
2018-04-26T05:13:18.644Z,88.18
2018-04-26T05:15:11.495Z,88.42
2018-04-26T05:16:11.481Z,84.68
2018-04-26T05:18:04.325Z,82.29
2018-04-26T05:19:04.311Z,86.88
2018-04-26T05:20:57.192Z,91.39
2018-04-26T05:21:57.164Z,99.99
2018-04-26T05:23:50.029Z,99.99
2018-04-26T05:24:50.012Z,99.99
2018-04-26T05:26:42.897Z,90.00
2018-04-26T05:27:42.869Z,88.56
2018-04-26T05:29:35.738Z,95.12
2018-04-26T05:30:35.728Z,89.81
2018-04-26T05:32:28.593Z,77.92
2018-04-26T05:33:28.567Z,76.52
2018-04-26T05:35:21.439Z,78.20
2018-04-26T05:36:21.431Z,72.63
2018-04-26T05:38:14.319Z,82.34
2018-04-26T05:39:14.286Z,83.20
2018-04-26T05:41:07.156Z,87.90
2018-04-26T05:42:07.140Z,90.30
2018-04-26T05:44:00.046Z,90.34
2018-04-26T05:44:59.989Z,92.54
2018-04-26T05:46:52.853Z,94.22
2018-04-26T05:47:52.839Z,96.51
2018-04-26T05:49:45.708Z,98.47
2018-04-26T05:50:45.680Z,99.14
2018-04-26T05:52:38.541Z,99.71
2018-04-26T05:53:38.524Z,99.99
2018-04-26T05:55:31.401Z,99.99
2018-04-26T05:56:31.372Z,98.75
2018-04-26T05:58:24.235Z,99.99
2018-04-26T05:59:24.217Z,99.99
2018-04-26T06:01:17.081Z,99.99
2018-04-26T06:02:17.065Z,98.42
2018-04-26T06:04:09.910Z,98.13
2018-04-26T06:05:09.930Z,99.08
2018-04-26T06:07:02.763Z,99.99
2018-04-26T06:08:02.730Z,98.99
2018-04-26T06:09:55.589Z,99.71
2018-04-26T06:10:55.571Z,99.47
2018-04-26T06:12:48.440Z,98.75
2018-04-26T06:13:48.408Z,98.47
2018-04-26T06:15:41.343Z,98.03
2018-04-26T06:16:41.254Z,97.80
2018-04-26T06:18:34.126Z,98.56
2018-04-26T06:19:34.093Z,97.22
2018-04-26T06:21:26.948Z,96.66
2018-04-26T06:22:26.933Z,97.42
2018-04-26T06:24:19.796Z,99.99
2018-04-26T06:25:19.766Z,99.99
2018-04-26T06:27:12.621Z,99.99
2018-04-26T06:28:12.602Z,98.75
2018-04-26T06:30:05.474Z,96.08
2018-04-26T06:31:05.490Z,98.27
2018-04-26T06:32:58.303Z,99.99
2018-04-26T06:33:58.281Z,99.99
2018-04-26T06:35:51.144Z,99.71
2018-04-26T06:36:51.118Z,99.13
2018-04-26T06:38:43.976Z,99.99
2018-04-26T06:39:43.962Z,99.99
2018-04-26T06:41:36.828Z,99.99
2018-04-26T06:42:36.793Z,99.99
2018-04-26T06:44:29.649Z,99.99
2018-04-26T06:45:29.625Z,99.99
2018-04-26T06:47:22.502Z,99.99
2018-04-26T06:48:22.471Z,99.99
2018-04-26T06:50:15.323Z,98.47
2018-04-26T06:51:15.310Z,99.99
2018-04-26T06:53:08.170Z,99.99
2018-04-26T06:54:08.146Z,98.75
2018-04-26T06:56:00.999Z,96.37
2018-04-26T06:57:00.979Z,96.08
2018-04-26T06:58:53.849Z,95.89
2018-04-26T06:59:53.819Z,95.12
2018-04-26T07:01:46.675Z,92.69
2018-04-26T07:02:46.657Z,92.97
2018-04-26T07:04:39.532Z,91.45
2018-04-26T07:05:39.494Z,92.79
2018-04-26T07:07:32.353Z,92.88
2018-04-26T07:08:32.335Z,92.79
2018-04-26T07:10:25.201Z,93.22
2018-04-26T07:11:25.174Z,92.93
2018-04-26T07:13:18.027Z,90.59
2018-04-26T07:14:18.009Z,92.12
2018-04-26T07:16:10.880Z,92.50
2018-04-26T07:17:10.847Z,90.31
2018-04-26T07:19:03.703Z,89.64
2018-04-26T07:20:03.682Z,88.73
2018-04-26T07:21:56.549Z,87.35
2018-04-26T07:22:56.523Z,86.68
2018-04-26T07:24:49.390Z,89.92
2018-04-26T07:25:49.369Z,89.25
2018-04-26T07:27:42.250Z,85.10
2018-04-26T07:28:42.209Z,87.35
2018-04-26T07:30:35.075Z,81.13
2018-04-26T07:31:35.069Z,79.02
2018-04-26T07:33:27.921Z,79.73
2018-04-26T07:34:27.893Z,78.93
2018-04-26T07:36:20.752Z,73.02
2018-04-26T07:37:20.738Z,70.09
2018-04-26T07:39:13.609Z,68.30
2018-04-26T07:40:13.586Z,65.97
2018-04-26T07:42:06.449Z,66.16
2018-04-26T07:43:06.434Z,66.29
2018-04-26T07:44:59.331Z,64.79
2018-04-26T07:45:59.285Z,67.94
2018-04-26T07:47:52.152Z,65.33
2018-04-26T07:48:52.135Z,65.74
2018-04-26T07:50:45.019Z,66.89
2018-04-26T07:51:44.997Z,66.16
2018-04-26T07:53:37.858Z,65.45
2018-04-26T07:54:37.846Z,68.01
2018-04-26T07:56:30.718Z,68.65
2018-04-26T07:57:30.697Z,66.00
2018-04-26T07:59:23.563Z,69.00
2018-04-26T08:00:23.549Z,66.67
2018-04-26T08:02:16.431Z,64.79
2018-04-26T08:03:16.406Z,64.09
2018-04-26T08:05:09.279Z,65.65
2018-04-26T08:06:09.265Z,69.09
2018-04-26T08:08:02.148Z,70.94
2018-04-26T08:09:02.124Z,69.13
2018-04-26T08:10:54.985Z,65.36
2018-04-26T08:11:54.975Z,62.33
2018-04-26T08:13:47.848Z,60.08
2018-04-26T08:14:47.831Z,58.52
2018-04-26T08:16:40.702Z,60.57
2018-04-26T08:17:40.692Z,58.64
2018-04-26T08:19:33.606Z,61.11
2018-04-26T08:20:33.557Z,64.92
2018-04-26T08:22:26.430Z,63.42
2018-04-26T08:23:26.417Z,63.80
2018-04-26T08:25:19.870Z,77.45
2018-04-26T08:26:19.278Z,78.01
2018-04-26T08:28:12.157Z,70.47
2018-04-26T08:29:12.143Z,65.55
2018-04-26T08:31:05.020Z,66.16
2018-04-26T08:32:05.000Z,62.52
2018-04-26T08:33:57.865Z,62.26
2018-04-26T08:34:57.859Z,62.07
2018-04-26T08:36:50.743Z,63.00
2018-04-26T08:37:50.710Z,64.15
2018-04-26T08:39:43.580Z,64.43
2018-04-26T08:40:43.563Z,63.60
2018-04-26T08:42:36.439Z,62.36
2018-04-26T08:43:36.415Z,60.16
2018-04-26T08:45:29.338Z,60.86
2018-04-26T08:46:29.269Z,59.42
2018-04-26T08:48:22.147Z,59.36
2018-04-26T08:49:22.122Z,61.15
2018-04-26T08:51:14.989Z,59.39
2018-04-26T08:52:14.995Z,57.37
2018-04-26T08:54:07.859Z,54.56
2018-04-26T08:55:07.836Z,57.19
2018-04-26T08:57:00.704Z,54.68
2018-04-26T08:58:00.691Z,53.19
2018-04-26T08:59:53.577Z,50.13
2018-04-26T09:00:53.551Z,50.68
2018-04-26T09:02:46.427Z,50.51
2018-04-26T09:03:46.417Z,48.13
2018-04-26T09:05:39.308Z,46.62
2018-04-26T09:06:39.325Z,45.99
2018-04-26T09:08:32.156Z,44.38
2018-04-26T09:09:32.151Z,43.68
2018-04-26T09:11:25.036Z,44.54
2018-04-26T09:12:25.018Z,44.31
2018-04-26T09:14:17.893Z,46.12
2018-04-26T09:15:17.886Z,47.44
2018-04-26T09:17:10.772Z,43.64
2018-04-26T09:18:10.823Z,43.99
2018-04-26T09:20:03.638Z,40.95
2018-04-26T09:21:03.631Z,41.74
2018-04-26T09:22:56.517Z,41.51
2018-04-26T09:23:56.506Z,41.61
2018-04-26T09:25:49.379Z,43.28
2018-04-26T09:26:49.370Z,44.44
2018-04-26T09:28:42.257Z,49.19
2018-04-26T09:29:42.241Z,50.70
2018-04-26T09:31:35.117Z,48.54
2018-04-26T09:32:35.099Z,50.51
2018-04-26T09:34:27.987Z,50.15
2018-04-26T09:35:27.964Z,50.34
2018-04-26T09:37:20.835Z,50.32
2018-04-26T09:38:20.820Z,50.08
2018-04-26T09:40:13.709Z,51.08
2018-04-26T09:41:13.685Z,51.65
2018-04-26T09:43:06.556Z,51.49
2018-04-26T09:44:06.540Z,51.30
2018-04-26T09:45:59.421Z,49.62
2018-04-26T09:46:59.399Z,49.41
2018-04-26T09:48:52.269Z,49.48
2018-04-26T09:49:52.254Z,51.65
2018-04-26T09:51:45.132Z,49.72
2018-04-26T09:52:45.112Z,48.76
2018-04-26T09:54:37.985Z,47.46
2018-04-26T09:55:37.972Z,46.00
2018-04-26T09:57:30.856Z,40.78
2018-04-26T09:58:30.905Z,40.30
2018-04-26T10:00:23.859Z,41.31
2018-04-26T10:01:23.699Z,41.76
2018-04-26T10:03:16.590Z,40.45
2018-04-26T10:04:16.566Z,38.54
2018-04-26T10:06:09.506Z,37.96
2018-04-26T10:07:09.436Z,39.39
2018-04-26T10:09:02.319Z,41.96
2018-04-26T10:10:02.303Z,42.03
2018-04-26T10:11:55.250Z,38.70
2018-04-26T10:12:55.179Z,40.63
2018-04-26T10:14:48.073Z,36.09
2018-04-26T10:15:48.052Z,32.56
2018-04-26T10:17:40.930Z,34.84
2018-04-26T10:18:40.932Z,34.35
2018-04-26T10:20:33.825Z,39.62
2018-04-26T10:21:33.806Z,36.91
2018-04-26T10:23:26.716Z,42.04
2018-04-26T10:24:26.714Z,40.95
2018-04-26T10:26:19.599Z,40.20
2018-04-26T10:27:19.587Z,38.22
2018-04-26T10:29:12.530Z,35.86
2018-04-26T10:30:12.454Z,35.31
2018-04-26T10:32:05.347Z,36.06
2018-04-26T10:33:05.330Z,34.64
2018-04-26T10:34:58.210Z,35.19
2018-04-26T10:35:58.205Z,34.45
2018-04-26T10:37:51.094Z,34.21
2018-04-26T10:38:51.089Z,38.01
2018-04-26T10:40:43.966Z,41.50
2018-04-26T10:41:43.957Z,40.39
2018-04-26T10:43:36.867Z,43.99
2018-04-26T10:44:36.848Z,45.62
2018-04-26T10:46:29.727Z,43.34
2018-04-26T10:47:29.723Z,43.53
2018-04-26T10:49:22.606Z,41.69
2018-04-26T10:50:22.586Z,43.30
2018-04-26T10:52:15.461Z,42.77
2018-04-26T10:53:15.451Z,41.56
2018-04-26T10:55:08.327Z,40.77
2018-04-26T10:56:08.310Z,40.70
2018-04-26T10:58:01.188Z,41.35
2018-04-26T10:59:01.176Z,42.19
2018-04-26T11:00:54.058Z,40.83
2018-04-26T11:01:54.036Z,41.16
2018-04-26T11:03:46.919Z,41.08
2018-04-26T11:04:46.907Z,39.53
2018-04-26T11:06:39.797Z,39.35
2018-04-26T11:07:39.788Z,39.14
2018-04-26T11:09:32.655Z,37.22
2018-04-26T11:10:32.638Z,37.66
2018-04-26T11:12:25.531Z,38.01
2018-04-26T11:13:25.514Z,39.23
2018-04-26T11:15:18.387Z,36.08
2018-04-26T11:16:18.379Z,34.22
2018-04-26T11:18:11.269Z,38.49
2018-04-26T11:19:11.245Z,36.24
2018-04-26T11:21:04.126Z,38.68
2018-04-26T11:22:04.124Z,39.41
2018-04-26T11:23:57.005Z,38.07
2018-04-26T11:24:56.985Z,37.43
2018-04-26T11:26:49.861Z,36.43
2018-04-26T11:27:49.859Z,36.68
2018-04-26T11:29:42.737Z,36.41
2018-04-26T11:30:42.718Z,37.84
2018-04-26T11:32:35.595Z,32.89
2018-04-26T11:33:35.585Z,31.99
2018-04-26T11:35:28.473Z,33.67
2018-04-26T11:36:28.452Z,34.54
2018-04-26T11:38:21.330Z,39.53
2018-04-26T11:39:21.325Z,39.26
2018-04-26T11:41:14.218Z,38.12
2018-04-26T11:42:14.193Z,37.16
2018-04-26T11:44:07.068Z,36.22
2018-04-26T11:45:07.058Z,35.31
2018-04-26T11:46:59.938Z,35.24
2018-04-26T11:47:59.923Z,34.01
2018-04-26T11:49:52.797Z,33.25
2018-04-26T11:50:52.786Z,32.82
2018-04-26T11:52:45.690Z,33.87
2018-04-26T11:53:45.648Z,35.24
2018-04-26T11:55:38.521Z,35.12
2018-04-26T11:56:38.510Z,35.99
2018-04-26T11:58:31.402Z,37.49
2018-04-26T11:59:31.372Z,37.95
2018-04-26T12:01:24.255Z,38.28
2018-04-26T12:02:24.267Z,38.74
2018-04-26T12:04:17.123Z,39.83
2018-04-26T12:05:17.104Z,37.80
2018-04-26T12:07:09.977Z,38.89
2018-04-26T12:08:09.963Z,38.41
2018-04-26T12:10:02.858Z,37.59
2018-04-26T12:11:02.827Z,35.49
2018-04-26T12:12:55.696Z,34.05
2018-04-26T12:13:55.684Z,34.43
2018-04-26T12:15:48.571Z,33.92
2018-04-26T12:16:48.547Z,33.18
2018-04-26T12:18:41.428Z,34.19
2018-04-26T12:19:41.415Z,32.86
2018-04-26T12:21:34.291Z,32.47
2018-04-26T12:22:34.274Z,32.81
2018-04-26T12:24:27.146Z,37.24
2018-04-26T12:25:27.138Z,37.39
2018-04-26T12:27:20.031Z,32.84
2018-04-26T12:28:20.007Z,32.17
2018-04-26T12:30:12.880Z,32.25
2018-04-26T12:31:12.871Z,33.98
2018-04-26T12:33:05.757Z,36.32
2018-04-26T12:34:05.733Z,35.10
2018-04-26T12:35:58.605Z,32.90
2018-04-26T12:36:58.596Z,34.22
2018-04-26T12:38:51.483Z,36.30
2018-04-26T12:39:51.459Z,35.78
2018-04-26T12:41:44.328Z,36.55
2018-04-26T12:42:44.320Z,37.24
2018-04-26T12:44:37.201Z,37.68
2018-04-26T12:45:37.175Z,38.20
2018-04-26T12:47:30.053Z,37.32
2018-04-26T12:48:30.035Z,37.87
2018-04-26T12:50:22.935Z,38.05
2018-04-26T12:51:22.890Z,37.30
2018-04-26T12:53:15.757Z,38.64
2018-04-26T12:54:15.743Z,36.95
2018-04-26T12:56:08.632Z,37.24
2018-04-26T12:57:08.600Z,35.74
2018-04-26T12:59:01.467Z,32.73
2018-04-26T13:00:01.455Z,32.07
2018-04-26T13:01:54.346Z,32.67
2018-04-26T13:02:54.313Z,36.09
2018-04-26T13:04:47.187Z,37.24
2018-04-26T13:05:47.177Z,37.55
2018-04-26T13:07:40.049Z,35.00
2018-04-26T13:08:40.030Z,33.77
2018-04-26T13:10:32.903Z,33.39
2018-04-26T13:11:32.889Z,33.36
2018-04-26T13:13:25.776Z,35.32
2018-04-26T13:14:25.753Z,36.38
2018-04-26T13:16:18.621Z,35.82
2018-04-26T13:17:18.697Z,34.30
2018-04-26T13:19:11.498Z,33.93
2018-04-26T13:20:11.464Z,33.56
2018-04-26T13:22:04.338Z,34.12
2018-04-26T13:23:04.327Z,34.49
2018-04-26T13:24:57.205Z,36.76
2018-04-26T13:25:57.186Z,36.51
2018-04-26T13:27:50.060Z,35.32
2018-04-26T13:28:50.048Z,36.16
2018-04-26T13:30:42.929Z,36.38
2018-04-26T13:31:42.904Z,36.60
2018-04-26T13:33:35.772Z,34.78
2018-04-26T13:34:35.756Z,34.39
2018-04-26T13:36:28.638Z,32.15
2018-04-26T13:37:28.612Z,33.10
2018-04-26T13:39:21.492Z,34.28
2018-04-26T13:40:21.480Z,32.67
2018-04-26T13:42:14.358Z,31.05
2018-04-26T13:43:14.340Z,32.59
2018-04-26T13:45:07.206Z,30.21
2018-04-26T13:46:07.194Z,30.51
2018-04-26T13:48:00.082Z,31.56
2018-04-26T13:49:00.057Z,34.11
2018-04-26T13:50:52.925Z,33.36
2018-04-26T13:51:52.918Z,34.07
2018-04-26T13:53:45.791Z,33.53
2018-04-26T13:54:45.785Z,33.28
2018-04-26T13:56:38.645Z,32.89
2018-04-26T13:57:38.635Z,32.14
2018-04-26T13:59:31.507Z,31.41
2018-04-26T14:00:31.487Z,32.10
2018-04-26T14:02:24.364Z,32.86
2018-04-26T14:03:24.351Z,33.15
2018-04-26T14:05:17.233Z,32.98
2018-04-26T14:06:17.208Z,30.15
2018-04-26T14:08:10.079Z,30.35
2018-04-26T14:09:10.070Z,29.86
2018-04-26T14:11:02.970Z,30.68
2018-04-26T14:12:02.994Z,32.70
2018-04-26T14:13:55.797Z,31.06
2018-04-26T14:14:55.783Z,32.39
2018-04-26T14:16:48.662Z,32.23
2018-04-26T14:17:48.646Z,31.16
2018-04-26T14:19:41.513Z,31.09
2018-04-26T14:20:41.503Z,31.64
2018-04-26T14:22:34.395Z,31.08
2018-04-26T14:23:34.370Z,31.08
2018-04-26T14:25:27.240Z,33.53
2018-04-26T14:26:27.229Z,33.84
2018-04-26T14:28:20.099Z,32.81
2018-04-26T14:29:20.101Z,32.14
2018-04-26T14:31:12.954Z,32.12
2018-04-26T14:32:12.943Z,32.90
2018-04-26T14:34:05.830Z,32.78
2018-04-26T14:35:05.802Z,33.36
2018-04-26T14:36:58.672Z,33.00
2018-04-26T14:37:58.660Z,32.12
2018-04-26T14:39:51.539Z,31.08
2018-04-26T14:40:51.521Z,30.98
2018-04-26T14:42:44.388Z,31.09
2018-04-26T14:43:44.374Z,30.40
2018-04-26T14:45:37.248Z,30.21
2018-04-26T14:46:37.228Z,29.55
2018-04-26T14:48:30.095Z,29.73
2018-04-26T14:49:30.084Z,29.96
2018-04-26T14:51:22.967Z,30.79
2018-04-26T14:52:22.940Z,30.58
2018-04-26T14:54:15.808Z,29.86
2018-04-26T14:55:15.794Z,28.38
2018-04-26T14:57:08.681Z,27.44
2018-04-26T14:58:08.656Z,26.35
2018-04-26T15:00:01.530Z,28.08
2018-04-26T15:01:01.521Z,28.15
2018-04-26T15:02:54.392Z,29.96
2018-04-26T15:03:54.377Z,29.97
2018-04-26T15:05:47.239Z,30.70
2018-04-26T15:06:47.229Z,31.67
2018-04-26T15:08:40.114Z,30.46
2018-04-26T15:09:40.085Z,31.85
2018-04-26T15:11:32.956Z,33.13
2018-04-26T15:12:32.943Z,32.75
2018-04-26T15:14:25.831Z,34.36
2018-04-26T15:15:25.859Z,34.57
2018-04-26T15:17:18.663Z,32.76
2018-04-26T15:18:18.645Z,31.13
2018-04-26T15:20:11.523Z,32.04
2018-04-26T15:21:11.498Z,33.77
2018-04-26T15:23:04.367Z,34.04
2018-04-26T15:24:04.347Z,34.44
2018-04-26T15:25:57.225Z,35.27
2018-04-26T15:26:57.197Z,35.28
2018-04-26T15:28:50.076Z,34.73
2018-04-26T15:29:50.047Z,34.63
2018-04-26T15:31:42.928Z,34.07
2018-04-26T15:32:42.902Z,33.58
2018-04-26T15:34:35.764Z,33.29
2018-04-26T15:35:35.745Z,33.39
2018-04-26T15:37:28.612Z,33.58
2018-04-26T15:38:28.589Z,33.48
2018-04-26T15:40:21.447Z,33.11
2018-04-26T15:41:21.433Z,33.19
2018-04-26T15:43:14.344Z,33.39
2018-04-26T15:44:14.337Z,34.41
2018-04-26T15:46:07.141Z,34.42
2018-04-26T15:47:07.122Z,34.33
2018-04-26T15:49:00.013Z,34.34
2018-04-26T15:49:59.986Z,34.53
2018-04-26T15:51:52.846Z,34.61
2018-04-26T15:52:52.828Z,34.42
2018-04-26T15:54:45.695Z,35.28
2018-04-26T15:55:45.679Z,35.28
2018-04-26T15:57:38.535Z,35.00
2018-04-26T15:58:38.524Z,35.28
2018-04-26T16:00:31.381Z,34.81
2018-04-26T16:01:31.367Z,34.33
2018-04-26T16:03:24.240Z,34.92
2018-04-26T16:04:24.199Z,34.33
2018-04-26T16:06:17.068Z,35.19
2018-04-26T16:07:17.043Z,34.79
2018-04-26T16:09:09.909Z,34.98
2018-04-26T16:10:09.893Z,35.38
2018-04-26T16:12:02.762Z,34.71
2018-04-26T16:13:02.741Z,34.71
2018-04-26T16:14:55.593Z,34.44
2018-04-26T16:15:55.580Z,33.86
2018-04-26T16:17:48.452Z,34.61
2018-04-26T16:18:48.442Z,35.19
2018-04-26T16:20:41.290Z,36.24
2018-04-26T16:21:41.274Z,36.22
2018-04-26T16:23:34.148Z,36.61
2018-04-26T16:24:34.123Z,36.63
2018-04-26T16:26:26.984Z,36.42
2018-04-26T16:27:26.966Z,36.99
2018-04-26T16:29:19.842Z,36.99
2018-04-26T16:30:19.820Z,37.38
2018-04-26T16:32:12.677Z,37.66
2018-04-26T16:33:12.672Z,37.47
2018-04-26T16:35:05.527Z,36.61
2018-04-26T16:36:05.508Z,36.32
2018-04-26T16:37:58.366Z,36.99
2018-04-26T16:38:58.350Z,37.09
2018-04-26T16:40:51.218Z,37.74
2018-04-26T16:41:51.191Z,37.18
2018-04-26T16:43:44.049Z,36.98
2018-04-26T16:44:44.035Z,36.79
2018-04-26T16:46:36.900Z,36.59
2018-04-26T16:47:36.871Z,37.16
2018-04-26T16:49:29.726Z,37.84
2018-04-26T16:50:29.709Z,37.84
2018-04-26T16:52:22.580Z,37.74
2018-04-26T16:53:22.548Z,38.22
2018-04-26T16:55:15.413Z,38.49
2018-04-26T16:56:15.397Z,38.49
2018-04-26T16:58:08.263Z,38.68
2018-04-26T16:59:08.237Z,38.87
2018-04-26T17:01:01.096Z,38.78
2018-04-26T17:02:01.081Z,38.78
2018-04-26T17:03:53.947Z,38.30
2018-04-26T17:04:53.935Z,37.53
2018-04-26T17:06:46.780Z,37.43
2018-04-26T17:07:46.762Z,37.82
2018-04-26T17:09:39.630Z,38.39
2018-04-26T17:10:39.599Z,38.66
2018-04-26T17:12:32.455Z,39.25
2018-04-26T17:13:32.436Z,39.43
2018-04-26T17:15:25.363Z,39.72
2018-04-26T17:16:25.278Z,40.00
2018-04-26T17:18:18.143Z,40.67
2018-04-26T17:19:18.118Z,40.48
2018-04-26T17:21:10.991Z,40.67
2018-04-26T17:22:10.962Z,40.77
2018-04-26T17:24:03.831Z,41.34
2018-04-26T17:25:03.802Z,41.34
2018-04-26T17:26:56.741Z,41.15
2018-04-26T17:27:56.713Z,41.53
2018-04-26T17:29:49.497Z,41.82
2018-04-26T17:30:49.481Z,41.89
2018-04-26T17:32:42.356Z,42.08
2018-04-26T17:33:42.325Z,42.18
2018-04-26T17:35:35.179Z,42.08
2018-04-26T17:36:35.155Z,42.76
2018-04-26T17:38:28.027Z,42.56
2018-04-26T17:39:27.996Z,42.56
2018-04-26T17:41:20.856Z,42.76
2018-04-26T17:42:20.919Z,42.85
2018-04-26T17:44:13.703Z,43.71
2018-04-26T17:45:13.676Z,43.69
2018-04-26T17:47:06.528Z,43.80
2018-04-26T17:48:06.548Z,43.90
2018-04-26T17:49:59.388Z,44.26
2018-04-26T17:50:59.354Z,44.36
2018-04-26T17:52:52.219Z,44.45
2018-04-26T17:53:52.183Z,44.55
2018-04-26T17:55:45.052Z,44.55
2018-04-26T17:56:45.022Z,44.55
2018-04-26T17:58:37.906Z,44.36
2018-04-26T17:59:37.857Z,45.22
2018-04-26T18:01:30.719Z,45.41
2018-04-26T18:02:30.692Z,45.03
2018-04-26T18:04:23.549Z,45.89
2018-04-26T18:05:23.532Z,46.15
2018-04-26T18:07:16.402Z,45.96
2018-04-26T18:08:16.365Z,45.96
2018-04-26T18:10:09.220Z,46.34
2018-04-26T18:11:09.204Z,46.92
2018-04-26T18:13:02.068Z,47.39
2018-04-26T18:14:02.039Z,47.39
2018-04-26T18:15:54.887Z,48.16
2018-04-26T18:16:54.870Z,48.25
2018-04-26T18:18:47.736Z,48.33
2018-04-26T18:19:47.708Z,48.52
2018-04-26T18:21:40.561Z,48.61
2018-04-26T18:22:40.538Z,49.28
2018-04-26T18:24:33.438Z,48.99
2018-04-26T18:25:33.371Z,49.64
2018-04-26T18:27:26.300Z,50.21
2018-04-26T18:28:26.208Z,50.31
2018-04-26T18:30:19.075Z,50.59
2018-04-26T18:31:19.044Z,51.54
2018-04-26T18:33:11.920Z,51.45